createdAt,value
2019-04-11T00:01:10.157Z,7.39
2019-04-11T00:03:57.965Z,7.39
2019-04-11T00:09:20.726Z,6.68
2019-04-11T00:11:50.337Z,6.49
2019-04-11T00:14:20.071Z,6.30
2019-04-11T00:16:50.233Z,5.70
2019-04-11T00:19:37.988Z,5.67
2019-04-11T00:22:25.762Z,5.41
2019-04-11T00:24:55.434Z,5.44
2019-04-11T00:27:24.631Z,5.77
2019-04-11T00:29:55.475Z,5.91
2019-04-11T00:32:44.136Z,6.23
2019-04-11T00:35:32.030Z,5.98
2019-04-11T00:38:01.420Z,5.53
2019-04-11T00:40:30.667Z,5.43
2019-04-11T00:42:59.162Z,5.31
2019-04-11T00:45:47.694Z,5.45
2019-04-11T00:48:17.601Z,5.74
2019-04-11T00:51:07.606Z,5.90
2019-04-11T00:56:12.331Z,6.44
2019-04-11T00:59:00.620Z,6.60
2019-04-11T01:01:29.145Z,6.37
2019-04-11T01:06:45.150Z,5.21
2019-04-11T01:09:13.602Z,5.38
2019-04-11T01:12:02.398Z,5.16
2019-04-11T01:14:32.034Z,5.25
2019-04-11T01:19:51.163Z,4.89
2019-04-11T01:22:22.129Z,4.96
2019-04-11T01:28:04.694Z,5.16
2019-04-11T01:34:10.628Z,4.43
2019-04-11T01:36:59.657Z,4.28
2019-04-11T01:39:47.679Z,4.36
2019-04-11T01:45:45.559Z,4.26
2019-04-11T01:51:23.683Z,3.94
2019-04-11T01:53:52.212Z,3.75
2019-04-11T01:59:13.929Z,3.81
2019-04-11T02:02:01.757Z,3.77
2019-04-11T02:04:49.335Z,3.65
2019-04-11T02:07:37.104Z,3.77
2019-04-11T02:10:45.482Z,3.68
2019-04-11T02:13:34.177Z,3.39
2019-04-11T02:19:32.369Z,3.32
2019-04-11T02:22:20.181Z,3.11
2019-04-11T02:25:08.163Z,3.25
2019-04-11T02:30:47.680Z,2.90
2019-04-11T02:33:17.715Z,3.10
2019-04-11T02:36:27.095Z,2.88
2019-04-11T02:42:45.497Z,3.16
2019-04-11T02:46:08.790Z,3.12
2019-04-11T02:48:24.538Z,2.86
2019-04-11T02:51:14.629Z,2.88
2019-04-11T02:53:45.171Z,2.80
2019-04-11T03:02:19.386Z,2.63
2019-04-11T03:05:07.636Z,2.76
2019-04-11T03:07:57.985Z,2.70
2019-04-11T03:10:27.131Z,2.49
2019-04-11T03:13:38.083Z,2.44
2019-04-11T03:16:38.119Z,2.39
2019-04-11T03:19:47.741Z,2.58
2019-04-11T03:22:26.952Z,2.42
2019-04-11T03:28:14.917Z,2.21
2019-04-11T03:39:56.835Z,2.46
2019-04-11T03:43:04.315Z,2.42
2019-04-11T03:46:15.952Z,2.38
2019-04-11T03:54:36.262Z,2.09
2019-04-11T04:00:35.424Z,1.88
2019-04-11T04:03:01.505Z,2.16
2019-04-11T04:06:10.153Z,1.92
2019-04-11T04:09:20.898Z,1.97
2019-04-11T04:18:21.210Z,2.06
2019-04-11T04:21:31.188Z,2.03
2019-04-11T04:24:03.226Z,1.91
2019-04-11T04:27:10.421Z,2.04
2019-04-11T04:32:33.781Z,2.23
2019-04-11T04:41:39.378Z,3.46
2019-04-11T04:44:24.234Z,3.58
2019-04-11T04:49:28.167Z,3.82
2019-04-11T04:51:57.153Z,3.91
2019-04-11T04:54:25.700Z,4.05
2019-04-11T04:56:54.661Z,4.19
2019-04-11T04:59:44.816Z,4.03
2019-04-11T05:02:14.976Z,4.21
2019-04-11T05:04:45.779Z,4.22
2019-04-11T05:07:38.000Z,4.08
2019-04-11T05:10:44.869Z,4.06
2019-04-11T05:16:16.804Z,4.27
2019-04-11T05:21:12.779Z,4.96
2019-04-11T05:23:41.881Z,5.33
2019-04-11T05:26:29.489Z,5.58
2019-04-11T05:28:57.944Z,5.76
2019-04-11T05:31:46.977Z,6.01
2019-04-11T05:34:16.132Z,5.85
2019-04-11T05:36:44.995Z,5.74
2019-04-11T05:39:16.002Z,5.93
2019-04-11T05:41:46.807Z,6.04
2019-04-11T05:44:15.136Z,6.35
2019-04-11T05:46:52.378Z,6.37
2019-04-11T05:52:22.072Z,6.41
2019-04-11T06:01:14.434Z,6.47
2019-04-11T06:03:45.330Z,6.25
2019-04-11T06:12:17.166Z,6.08
2019-04-11T06:15:05.989Z,6.10
2019-04-11T06:17:34.479Z,6.17
2019-04-11T06:20:41.389Z,6.33
2019-04-11T06:23:29.627Z,6.20
2019-04-11T06:26:18.747Z,6.56
2019-04-11T06:31:46.053Z,6.37
2019-04-11T06:34:15.533Z,6.63
2019-04-11T06:37:03.829Z,6.43
2019-04-11T06:39:51.610Z,6.63
2019-04-11T06:42:39.351Z,6.53
2019-04-11T06:45:48.113Z,6.67
2019-04-11T06:48:38.067Z,6.61
2019-04-11T06:51:46.343Z,6.77
2019-04-11T06:54:33.942Z,6.83
2019-04-11T07:08:02.087Z,7.08
2019-04-11T07:10:51.082Z,7.20
2019-04-11T07:13:39.955Z,7.18
2019-04-11T07:16:09.042Z,7.23
2019-04-11T07:18:57.737Z,7.09
2019-04-11T07:24:34.621Z,7.34
2019-04-11T07:30:11.454Z,7.56
2019-04-11T07:32:40.625Z,7.28
2019-04-11T07:35:29.426Z,7.34
2019-04-11T07:37:58.239Z,7.45
2019-04-11T07:40:47.570Z,7.42
2019-04-11T07:43:18.510Z,7.59
2019-04-11T07:46:05.482Z,7.53
2019-04-11T07:48:33.930Z,7.85
2019-04-11T07:51:40.967Z,7.68
2019-04-11T07:54:49.331Z,7.76
2019-04-11T08:00:17.146Z,7.80
2019-04-11T08:03:06.380Z,7.78
2019-04-11T08:06:15.533Z,7.76
2019-04-11T08:14:46.461Z,7.80
2019-04-11T08:17:39.056Z,7.80
2019-04-11T08:20:44.162Z,7.91
2019-04-11T08:23:52.541Z,8.38
2019-04-11T08:26:59.408Z,7.95
2019-04-11T08:32:36.130Z,8.21
2019-04-11T08:35:44.448Z,8.24
2019-04-11T08:38:53.064Z,8.10
2019-04-11T08:41:42.209Z,8.22
2019-04-11T08:44:11.923Z,8.28
2019-04-11T08:49:50.185Z,8.55
2019-04-11T08:52:38.519Z,8.73
2019-04-11T08:55:53.603Z,8.58
2019-04-11T09:01:25.462Z,8.44
2019-04-11T09:04:14.972Z,8.44
2019-04-11T09:15:10.794Z,8.89
2019-04-11T09:25:54.698Z,8.54
2019-04-11T09:28:43.925Z,8.86
2019-04-11T09:31:51.722Z,8.84
2019-04-11T09:34:39.311Z,8.80
2019-04-11T09:42:43.011Z,9.52
2019-04-11T09:45:52.601Z,9.41
2019-04-11T09:48:42.293Z,9.46
2019-04-11T09:51:49.919Z,9.21
2019-04-11T09:54:37.651Z,9.22
2019-04-11T10:00:55.007Z,9.44
2019-04-11T10:06:34.364Z,9.33
2019-04-11T10:15:47.247Z,9.68
2019-04-11T10:18:38.686Z,9.77
2019-04-11T10:24:01.051Z,10.19
2019-04-11T10:29:39.782Z,10.12
2019-04-11T10:35:19.025Z,10.17
2019-04-11T10:46:15.414Z,10.58
2019-04-11T10:49:03.825Z,10.13
2019-04-11T10:51:51.433Z,10.44
2019-04-11T10:54:19.889Z,10.39
2019-04-11T11:02:31.826Z,10.49
2019-04-11T11:05:01.074Z,10.90
2019-04-11T11:07:50.954Z,10.90
2019-04-11T11:10:39.730Z,10.50
2019-04-11T11:13:28.352Z,10.67
2019-04-11T11:26:35.632Z,10.78
2019-04-11T11:29:45.216Z,10.93
2019-04-11T11:37:47.264Z,11.18
2019-04-11T11:43:25.263Z,11.12
2019-04-11T11:46:14.129Z,11.22
2019-04-11T11:54:17.580Z,11.48
2019-04-11T11:57:06.642Z,11.21
2019-04-11T11:59:55.158Z,11.36
2019-04-11T12:03:03.499Z,11.39
2019-04-11T12:08:26.553Z,11.28
2019-04-11T12:14:04.071Z,11.48
2019-04-11T12:16:59.642Z,11.37
2019-04-11T12:20:09.681Z,11.31
2019-04-11T12:25:41.222Z,11.31
2019-04-11T12:28:29.754Z,11.38
2019-04-11T12:33:57.706Z,11.60
2019-04-11T12:39:53.632Z,11.25
2019-04-11T12:45:51.211Z,11.46
2019-04-11T12:51:48.726Z,11.39
2019-04-11T12:57:25.422Z,11.75
2019-04-11T13:00:12.998Z,11.61
2019-04-11T13:03:00.634Z,11.85
2019-04-11T13:06:09.009Z,11.95
2019-04-11T13:14:15.140Z,11.95
2019-04-11T13:19:51.827Z,12.46
2019-04-11T13:25:49.378Z,12.42
2019-04-11T13:28:37.168Z,11.78
2019-04-11T13:31:24.772Z,12.36
2019-04-11T13:37:01.955Z,12.42
2019-04-11T13:39:49.616Z,11.90
2019-04-11T13:42:37.220Z,12.11
2019-04-11T13:45:45.592Z,12.25
2019-04-11T13:48:33.555Z,12.26
2019-04-11T13:54:10.316Z,11.95
2019-04-11T13:56:57.901Z,12.13
2019-04-11T13:59:45.543Z,12.04
2019-04-11T14:02:50.599Z,12.31
2019-04-11T14:16:19.062Z,12.19
2019-04-11T14:19:07.190Z,12.19
2019-04-11T14:22:15.765Z,12.06
2019-04-11T14:25:03.409Z,12.00
2019-04-11T14:30:52.471Z,12.36
2019-04-11T14:39:09.001Z,12.30
2019-04-11T14:41:56.589Z,12.05
2019-04-11T14:53:28.307Z,12.28
2019-04-11T14:56:15.885Z,12.37
2019-04-11T14:59:03.542Z,12.13
2019-04-11T15:04:43.714Z,12.38
2019-04-11T15:10:18.703Z,12.08
2019-04-11T15:16:14.791Z,12.08
2019-04-11T15:21:51.538Z,11.80
2019-04-11T15:27:28.293Z,11.98
2019-04-11T15:33:05.007Z,12.05
2019-04-11T15:39:00.743Z,11.91
2019-04-11T15:44:37.427Z,11.88
2019-04-11T15:47:25.000Z,11.70
2019-04-11T15:50:12.616Z,11.52
2019-04-11T15:56:08.630Z,11.51
2019-04-11T16:01:45.315Z,11.74
2019-04-11T16:04:32.957Z,11.64
2019-04-11T16:07:41.368Z,11.81
2019-04-11T16:10:49.740Z,11.84
2019-04-11T16:16:16.889Z,11.77
2019-04-11T16:19:04.465Z,11.79
2019-04-11T16:21:54.685Z,11.46
2019-04-11T16:27:49.895Z,11.55
2019-04-11T16:30:58.267Z,11.14
2019-04-11T16:36:40.714Z,11.32
2019-04-11T16:42:17.355Z,11.39
2019-04-11T16:45:04.997Z,11.29
2019-04-11T16:50:32.136Z,10.98
2019-04-11T16:53:00.595Z,11.22
2019-04-11T16:55:48.444Z,10.94
2019-04-11T16:58:19.545Z,10.83
2019-04-11T17:00:52.127Z,10.81
2019-04-11T17:03:17.496Z,10.72
2019-04-11T17:06:05.142Z,10.79
2019-04-11T17:08:56.103Z,10.78
2019-04-11T17:11:26.732Z,10.73
2019-04-11T17:13:56.990Z,10.57
2019-04-11T17:16:23.519Z,10.52
2019-04-11T17:18:52.051Z,10.56
2019-04-11T17:24:08.047Z,10.58
2019-04-11T17:26:55.713Z,10.52
2019-04-11T17:29:25.010Z,10.28
2019-04-11T17:37:36.703Z,10.43
2019-04-11T17:40:45.073Z,10.33
2019-04-11T17:43:32.758Z,10.06
2019-04-11T17:46:20.403Z,9.98
2019-04-11T17:48:50.402Z,9.76
2019-04-11T17:51:19.130Z,9.63
2019-04-11T17:53:47.580Z,9.72
2019-04-11T17:56:16.119Z,9.62
2019-04-11T17:58:44.590Z,9.28
2019-04-11T18:01:13.111Z,9.35
2019-04-11T18:03:42.111Z,9.30
2019-04-11T18:06:11.773Z,9.10
2019-04-11T18:08:59.462Z,8.93
2019-04-11T18:11:47.235Z,9.02
2019-04-11T18:17:09.457Z,8.86
2019-04-11T18:19:38.014Z,8.81
2019-04-11T18:25:14.839Z,8.30
2019-04-11T18:27:43.286Z,8.34
2019-04-11T18:30:53.763Z,8.42
2019-04-11T18:33:21.884Z,8.31
2019-04-11T18:35:50.406Z,8.20
2019-04-11T18:38:18.896Z,8.31
2019-04-11T18:41:06.611Z,8.01
2019-04-11T18:46:29.773Z,7.99
2019-04-11T18:49:19.443Z,8.11
2019-04-11T18:51:47.617Z,8.12
2019-04-11T18:54:16.075Z,8.13
2019-04-11T18:56:44.532Z,8.16
2019-04-11T19:04:58.879Z,7.69
2019-04-11T19:07:28.202Z,7.57
2019-04-11T19:09:57.578Z,7.44
2019-04-11T19:15:00.433Z,7.20
2019-04-11T19:17:48.230Z,7.18
2019-04-11T19:20:56.584Z,7.06
2019-04-11T19:25:59.169Z,7.32
2019-04-11T19:28:27.618Z,7.37
2019-04-11T19:31:15.290Z,7.51
2019-04-11T19:33:43.766Z,7.40
2019-04-11T19:36:12.852Z,7.25
2019-04-11T19:41:35.606Z,7.07
2019-04-11T19:44:44.016Z,6.91
2019-04-11T19:47:12.462Z,6.81
2019-04-11T19:49:40.911Z,6.78
2019-04-11T19:54:43.466Z,6.85
2019-04-11T19:57:11.951Z,6.93
2019-04-11T19:59:59.718Z,6.93
2019-04-11T20:02:47.318Z,7.19
2019-04-11T20:05:34.909Z,7.26
2019-04-11T20:08:22.582Z,7.23
2019-04-11T20:10:51.026Z,7.26
2019-04-11T20:13:38.906Z,7.16
2019-04-11T20:16:07.352Z,7.12
2019-04-11T20:18:35.798Z,6.93
2019-04-11T20:21:23.773Z,6.86
2019-04-11T20:23:53.774Z,7.03
2019-04-11T20:26:41.579Z,6.82
2019-04-11T20:29:10.030Z,6.68
2019-04-11T20:31:57.773Z,6.62
2019-04-11T20:34:45.366Z,6.49
2019-04-11T20:37:13.854Z,6.64
2019-04-11T20:39:46.288Z,6.59
2019-04-11T20:42:12.471Z,6.37
2019-04-11T20:47:16.790Z,6.37
2019-04-11T20:52:20.898Z,6.41
2019-04-11T20:54:49.344Z,6.31
2019-04-11T20:57:25.690Z,6.29
2019-04-11T20:59:48.004Z,6.31
2019-04-11T21:02:35.794Z,6.40
2019-04-11T21:08:18.338Z,6.03
2019-04-11T21:11:06.114Z,5.82
2019-04-11T21:13:38.164Z,5.89
2019-04-11T21:16:23.972Z,5.78
2019-04-11T21:21:26.660Z,5.68
2019-04-11T21:23:55.166Z,5.58
2019-04-11T21:26:23.600Z,5.63
2019-04-11T21:28:52.050Z,5.58
2019-04-11T21:31:20.496Z,5.44
2019-04-11T21:34:08.231Z,5.54
2019-04-11T21:36:36.676Z,5.42
2019-04-11T21:39:45.089Z,5.27
2019-04-11T21:42:13.537Z,5.35
2019-04-11T21:44:41.985Z,5.35
2019-04-11T21:47:29.903Z,5.30
2019-04-11T21:49:58.350Z,5.29
2019-04-11T21:55:20.683Z,5.37
2019-04-11T21:58:08.530Z,5.25
2019-04-11T22:01:16.874Z,5.23
2019-04-11T22:04:27.164Z,5.16
2019-04-11T22:07:35.715Z,5.15
2019-04-11T22:10:44.115Z,5.00
2019-04-11T22:13:12.576Z,5.01
2019-04-11T22:16:00.262Z,4.88
2019-04-11T22:18:48.025Z,4.85
2019-04-11T22:21:16.518Z,4.80
2019-04-11T22:23:48.995Z,4.85
2019-04-11T22:26:15.146Z,4.68
2019-04-11T22:28:43.656Z,4.64
2019-04-11T22:31:12.104Z,4.65
2019-04-11T22:37:09.574Z,4.59
2019-04-11T22:39:38.088Z,4.55
2019-04-11T22:42:25.898Z,4.46
2019-04-11T22:44:54.351Z,4.68
2019-04-11T22:47:22.807Z,4.57
2019-04-11T22:52:25.261Z,4.51
2019-04-11T22:57:34.198Z,4.59
2019-04-11T23:00:02.712Z,4.62
2019-04-11T23:02:50.317Z,4.48
2019-04-11T23:05:18.766Z,4.56
2019-04-11T23:07:48.299Z,4.50
2019-04-11T23:10:36.607Z,4.46
2019-04-11T23:13:05.134Z,4.39
2019-04-11T23:15:33.574Z,4.52
2019-04-11T23:20:35.678Z,4.30
2019-04-11T23:23:04.134Z,4.17
2019-04-11T23:25:32.636Z,4.18
2019-04-11T23:28:01.076Z,4.24
2019-04-11T23:30:29.518Z,4.21
2019-04-11T23:35:51.791Z,4.45
2019-04-11T23:41:14.662Z,4.53
2019-04-11T23:44:02.510Z,4.40
2019-04-11T23:46:30.956Z,4.33
2019-04-11T23:48:59.410Z,4.63
2019-04-11T23:51:27.894Z,4.46
2019-04-11T23:54:22.959Z,4.56
